• Join FlightAware (Why Join?)
  • Login
  • US Flag 
12:07AM EDT


 

Airport Tracker/Info


-or-


 

Live Flight TrackerFlight Track Log ✈ THY1993 ✈ 26-Apr-2013 ✈ LTBA / IST - EGCC / MAN

Flight Track Log - Related Links

Times and Time Zones

All times are in EDT time to prevent confusion due to time zone crossing. See the THY1993 flight status page for this flight to view local times or setup timezone preferences in your user account.

Time Position Orientation Groundspeed Altitude Reporting Facility
EDT Latitude Longitude Course Direction KTS MPH feet Rate Location/Type
01:39AM 42.4678 26.4824 311° West  Level Estimated
01:40AM 42.5411 26.3626 310° West  Level Estimated
01:41AM 42.6142 26.2425 310° West  Level Estimated
01:42AM 42.6873 26.1221 310° West  Level Estimated
01:43AM 42.7602 26.0015 309° West  Level Estimated
01:44AM 42.8329 25.8805 309° West  Level Estimated
01:45AM 42.9056 25.7593 309° West  Level Estimated
01:46AM 42.9781 25.6378 309° West  Level Estimated
01:47AM 43.0505 25.5160 309° West  Level Estimated
01:48AM 43.1227 25.3939 309° West  Level Estimated
01:49AM 43.1949 25.2715 309° West  Level Estimated
01:50AM 43.2669 25.1488 309° West  Level Estimated
01:51AM 43.3387 25.0259 309° West  Level Estimated
01:52AM 43.4105 24.9026 309° West  Level Estimated
01:53AM 43.4821 24.7791 309° West  Level Estimated
01:54AM 43.5536 24.6552 309° West  Level Estimated
01:55AM 43.6249 24.5311 308° West  Level Estimated
01:56AM 43.6961 24.4067 308° West  Level Estimated
01:57AM 43.7672 24.2819 308° West  Level Estimated
01:58AM 43.8381 24.1569 308° West  Level Estimated
01:59AM 43.9089 24.0316 308° West  Level Estimated
02:00AM 43.9795 23.9060 308° West  Level Estimated
02:01AM 44.0501 23.7801 308° West  Level Estimated
02:02AM 44.1204 23.6539 308° West  Level Estimated
02:03AM 44.1907 23.5274 308° West  Level Estimated
02:04AM 44.2608 23.4006 308° West  Level Estimated
02:05AM 44.3307 23.2734 308° West  Level Estimated
02:06AM 44.4006 23.1460 308° West  Level Estimated
02:07AM 44.4702 23.0183 307° West  Level Estimated
02:08AM 44.5398 22.8902 307° West  Level Estimated
02:09AM 44.6092 22.7619 307° West  Level Estimated
02:10AM 44.6784 22.6333 307° West  Level Estimated
02:11AM 44.7475 22.5043 307° West  Level Estimated
02:12AM 44.8165 22.3751 307° West  Level Estimated
02:13AM 44.8853 22.2455 307° West  Level Estimated
02:14AM 44.9539 22.1156 307° West  Level Estimated
02:15AM 45.0225 21.9854 307° West  Level Estimated
02:16AM 45.0908 21.8549 307° West  Level Estimated
02:17AM 45.1590 21.7241 307° West  Level Estimated
02:18AM 45.2271 21.5930 306° West  Level Estimated
02:19AM 45.2950 21.4615 306° West  Level Estimated
02:20AM 45.3628 21.3298 306° West  Level Estimated
02:21AM 45.4304 21.1977 306° West  Level Estimated
02:22AM 45.4979 21.0653 306° West  Level Estimated
02:23AM 45.5652 20.9326 306° West  Level Estimated
02:24AM 45.6323 20.7996 306° West  Level Estimated
02:25AM 45.6993 20.6663 306° West  Level Estimated
02:26AM 45.7662 20.5326 306° West  Level Estimated
02:27AM 45.8329 20.3986 306° West  Level Estimated
02:28AM 45.8994 20.2643 305° West  Level Estimated
02:29AM 45.9658 20.1297 305° West  Level Estimated
02:30AM 46.0320 19.9947 305° West  Level Estimated
02:31AM 46.0980 19.8595 305° West  Level Estimated
02:32AM 46.1640 19.7239 305° West  Level Estimated
02:33AM 46.2297 19.5880 305° West  Level Estimated
02:34AM 46.2953 19.4517 305° West  Level Estimated
02:35AM 46.3607 19.3152 305° West  Level Estimated
02:36AM 46.4259 19.1783 305° West  Level Estimated
02:37AM 46.4910 19.0410 305° West  Level Estimated
02:38AM 46.5559 18.9035 304° West  Level Estimated
02:39AM 46.6207 18.7656 304° West  Level Estimated
02:40AM 46.6853 18.6274 304° West  Level Estimated
02:41AM 46.7497 18.4888 304° West  Level Estimated
02:42AM 46.8139 18.3500 304° West  Level Estimated
02:43AM 46.8780 18.2108 304° West  Level Estimated
02:44AM 46.9420 18.0712 304° West  Level Estimated
02:45AM 47.0057 17.9314 304° West  Level Estimated
02:46AM 47.0693 17.7911 304° West  Level Estimated
02:47AM 47.1327 17.6506 304° West  Level Estimated
02:48AM 47.1959 17.5097 303° West  Level Estimated
02:49AM 47.2590 17.3685 303° West  Level Estimated
02:50AM 47.3219 17.2270 303° West  Level Estimated
02:51AM 47.3846 17.0851 303° West  Level Estimated
02:52AM 47.4471 16.9429 303° West  Level Estimated
02:53AM 47.5095 16.8003 303° West  Level Estimated
02:54AM 47.5717 16.6574 303° West  Level Estimated
02:55AM 47.6337 16.5142 303° West  Level Estimated
02:56AM 47.6955 16.3706 303° West  Level Estimated
02:57AM 47.7571 16.2267 303° West  Level Estimated
02:58AM 47.8186 16.0824 302° West  Level Estimated
02:59AM 47.8799 15.9378 302° West  Level Estimated
03:00AM 47.9410 15.7929 302° West  Level Estimated
03:01AM 48.0019 15.6476 302° West  Level Estimated
03:02AM 48.0626 15.5020 302° West  Level Estimated
03:03AM 48.1232 15.3560 302° West  Level Estimated
03:04AM 48.1836 15.2097 302° West  Level Estimated
03:05AM 48.2437 15.0630 302° West  Level Estimated
03:06AM 48.3037 14.9160 302° West  Level Estimated
03:07AM 48.3635 14.7687 301° West  Level Estimated
03:08AM 48.4232 14.6210 301° West  Level Estimated
03:09AM 48.4826 14.4729 301° West  Level Estimated
03:10AM 48.5418 14.3245 301° West  Level Estimated
03:11AM 48.6009 14.1758 301° West  Level Estimated
03:12AM 48.6597 14.0267 301° West  Level Estimated
03:13AM 48.7184 13.8773 301° West  Level Estimated
03:14AM 48.7769 13.7275 301° West  Level Estimated
03:15AM 48.8351 13.5774 301° West  Level Estimated
03:16AM 48.8932 13.4269 300° West  Level Estimated
03:17AM 48.9511 13.2761 300° West  Level Estimated
03:18AM 49.0088 13.1249 300° West  Level Estimated
03:19AM 49.0663 12.9733 300° West  Level Estimated
03:20AM 49.1236 12.8215 300° West  Level Estimated
03:21AM 49.1806 12.6692 300° West  Level Estimated
03:22AM 49.2375 12.5167 300° West  Level Estimated
03:23AM 49.2942 12.3637 300° West  Level Estimated
03:24AM 49.3507 12.2105 300° West  Level Estimated
03:25AM 49.4070 12.0568 299° West  Level Estimated
03:26AM 49.4631 11.9028 299° West  Level Estimated
03:27AM 49.5189 11.7485 299° West  Level Estimated
03:28AM 49.5746 11.5938 299° West  Level Estimated
03:29AM 49.6301 11.4388 299° West  Level Estimated
03:30AM 49.6853 11.2834 299° West  Level Estimated
03:31AM 49.7403 11.1276 299° West  Level Estimated
03:32AM 49.7952 10.9715 299° West  Level Estimated
03:33AM 49.8498 10.8151 298° West  Level Estimated
03:34AM 49.9042 10.6582 298° West  Level Estimated
03:35AM 49.9584 10.5011 298° West  Level Estimated
03:36AM 50.0124 10.3436 298° West  Level Estimated
03:37AM 50.0662 10.1857 298° West  Level Estimated
03:38AM 50.1197 10.0275 298° West  Level Estimated
03:39AM 50.1731 9.8689 298° West  Level Estimated
03:40AM 50.2262 9.7100 298° West  Level Estimated
03:41AM 50.2791 9.5507 298° West  Level Estimated
03:42AM 50.3318 9.3910 297° West  Level Estimated
03:43AM 50.3843 9.2310 297° West  Level Estimated
03:44AM 50.4365 9.0707 297° West  Level Estimated
03:45AM 50.4885 8.9100 297° West  Level Estimated
03:46AM 50.5404 8.7490 297° West  Level Estimated
03:47AM 50.5919 8.5875 297° West  Level Estimated
03:48AM 50.6433 8.4258 297° West  Level Estimated
03:49AM 50.6945 8.2637 297° West  Level Estimated
03:50AM 50.7454 8.1012 296° West  Level Estimated
03:51AM 50.7961 7.9384 296° West  Level Estimated
03:52AM 50.8465 7.7752 296° West  Level Estimated
03:53AM 50.8968 7.6117 296° West  Level Estimated
03:54AM 50.9468 7.4478 296° West  Level Estimated
03:55AM 50.9966 7.2836 296° West  Level Estimated
03:56AM 51.0461 7.1190 296° West  Level Estimated
03:57AM 51.0954 6.9541 296° West  Level Estimated
03:58AM 51.1445 6.7888 295° West  Level Estimated
03:59AM 51.1933 6.6232 295° West  Level Estimated
04:00AM 51.2419 6.4572 295° West  Level Estimated
04:01AM 51.2903 6.2908 295° West  Level Estimated
04:02AM 51.3385 6.1241 295° West  Level Estimated
04:03AM 51.3864 5.9571 295° West  Level Estimated
04:04AM 51.4340 5.7897 295° West  Level Estimated
04:05AM 51.4815 5.6220 294° West  Level Estimated
04:06AM 51.5286 5.4539 294° West  Level Estimated
04:07AM 51.5756 5.2855 294° West  Level Estimated
04:08AM 51.6223 5.1167 294° West  Level Estimated
04:09AM 51.6688 4.9476 294° West  Level Estimated
04:10AM 51.7150 4.7781 294° West  Level Estimated
04:11AM 51.7610 4.6083 294° West  Level Estimated
04:12AM 51.8067 4.4381 294° West  Level Estimated
04:13AM 51.8522 4.2676 293° West  Level Estimated
04:14AM 51.8974 4.0968 293° West  Level Estimated
04:15AM 51.9424 3.9256 293° West  Level Estimated
04:16AM 51.9871 3.7541 293° West  Level Estimated
04:17AM 52.0316 3.5822 293° West  Level Estimated
04:18AM 52.0759 3.4100 293° West  Level Estimated
04:19AM 52.1199 3.2374 293° West  Level Estimated
04:20AM 52.1636 3.0645 292° West  Level Estimated
04:21AM 52.2071 2.8913 292° West  Level Estimated
04:22AM 52.2503 2.7177 292° West  Level Estimated
04:23AM 52.2933 2.5438 292° West  Level Estimated
04:24AM 52.3360 2.3695 292° West  Level Estimated
04:25AM 52.3785 2.1949 292° West  Level Estimated
04:26AM 52.4207 2.0200 292° West  Level Estimated
04:27AM 52.4626 1.8447 292° West  Level Estimated
04:28AM 52.5043 1.6691 291° West  Level Estimated
04:29AM 52.5457 1.4932 291° West  Level Estimated
04:30AM 52.5869 1.3170 291° West  Level Estimated
04:31AM 52.6278 1.1404 291° West  Level Estimated
04:32AM 52.6684 0.9635 291° West  Level Estimated
04:33AM 52.7088 0.7862 291° West  Level Estimated
04:34AM 52.7489 0.6087 291° West  Level Estimated
04:35AM 52.7887 0.4308 290° West  Level Estimated
04:36AM 52.8283 0.2526 290° West  Level Estimated
04:37AM 52.8676 0.0740 290° West  Level Estimated
04:38AM 52.9067 -0.1049 290° West  Level Estimated
04:39AM 52.9454 -0.2840 290° West  Level Estimated
04:40AM 52.9839 -0.4636 290° West  Level Estimated
04:41AM 53.0222 -0.6434 290° West  Level Estimated
04:42AM 53.0601 -0.8235 289° West  Level Estimated
04:43AM 53.0978 -1.0040 289° West  Level Estimated
04:44AM 53.1352 -1.1848 289° West  Level Estimated
04:45AM 53.1724 -1.3658 289° West  Level Estimated
04:46AM 53.2092 -1.5473 289° West  Level Estimated
04:47AM 53.2458 -1.7290 289° West  Level Estimated
04:48AM 53.2821 -1.9110 289° West  Level Estimated
04:49AM 53.3182 -2.0933 288° West  Level Estimated
04:50AM 53.3537 -2.2750 288° West  Level Estimated
04:51AM 53.3537 -2.2750 North  Level Estimated
04:52AM 53.3537 -2.2750 North  Level Estimated
04:53AM 53.3537 -2.2750 North  Level Estimated
04:54AM 53.3537 -2.2750 North  Level Estimated
04:55AM 53.3537 -2.2750 North  Level Estimated
04:56AM 53.3537 -2.2750 North  Level Estimated
04:57AM 53.3537 -2.2750 North  Level Estimated
04:58AM 53.3537 -2.2750 North  Level Estimated
04:59AM 53.3537 -2.2750 North  Level Estimated
05:00AM 53.3537 -2.2750 North  Level Estimated
05:01AM 53.3537 -2.2750 North  Level Estimated
05:02AM 53.3537 -2.2750 North  Level Estimated
05:03AM 53.3537 -2.2750 North  Level Estimated
05:04AM 53.3537 -2.2750 North  Level Estimated
05:05AM 53.3537 -2.2750 North  Level Estimated
05:06AM 53.3537 -2.2750 North  Level Estimated